Terminal Aerodrome Forecast
Issued by NWS Buffalo, NY

Home | Current Version | Previous Version | Text Only | Print | Product List | Glossary On
Versions: 1 2 3 4 5 6 7 8 9 10 11 12 13 14 15 16 17 18 19 20 21 22 23 24
823
FTUS41 KBUF 240202 AAB
TAFBUF
TAF AMD
KBUF 240202Z 2402/2424 16018G25KT P6SM VCSH BKN050
     FM240300 16018G26KT 4SM SHRA OVC035
     FM240700 19014G20KT P6SM BKN110
     FM241100 21012G18KT P6SM BKN035
     FM241500 20013G20KT P6SM BKN040
     FM242100 21013G20KT P6SM SCT040=

USA.gov is the U.S. government's official web portal to all federal, state and local government web resources and services.